Time;durP1;ratioP1;P1;durP2;ratioP2;P2;SDS_P1;SDS_P2;PMS_P1;PMS_P2;Temp;Humidity;BMP_temperature;BMP_pressure;BME280_temperature;BME280_humidity;BME280_pressure;Samples;Min_cycle;Max_cycle;Signal;HPM_P1;HPM_P2
2022/01/30 00:00:59;;;;;;;15.47;4.10;;;16.20;63.30;;;;;;5017521;28;20484;-83
2022/01/30 00:03:48;;;;;;;15.90;3.57;;;16.30;63.50;;;;;;5017332;28;20475;-84
2022/01/30 00:06:16;;;;;;;10.60;3.10;;;16.30;63.30;;;;;;5016695;28;20439;-84
2022/01/30 00:08:47;;;;;;;11.20;3.03;;;16.20;63.30;;;;;;5017638;28;20436;-83
2022/01/30 00:11:21;;;;;;;8.83;2.97;;;16.20;63.40;;;;;;5016568;28;20452;-82
2022/01/30 00:13:49;;;;;;;14.97;3.67;;;16.20;63.30;;;;;;5017303;28;20448;-84
2022/01/30 00:16:25;;;;;;;17.67;3.37;;;16.20;63.30;;;;;;5017649;28;20440;-84
2022/01/30 00:19:01;;;;;;;14.23;3.50;;;16.30;63.20;;;;;;5018000;28;20468;-85
2022/01/30 00:21:37;;;;;;;18.80;3.87;;;16.20;63.20;;;;;;5017454;28;20440;-84
2022/01/30 00:24:10;;;;;;;16.13;3.73;;;16.20;63.30;;;;;;5017296;28;20484;-84
2022/01/30 00:26:46;;;;;;;15.73;3.70;;;16.20;63.30;;;;;;5017102;28;20457;-85
2022/01/30 00:32:39;;;;;;;9.77;3.43;;;16.10;63.30;;;;;;4961393;28;20518;-85
2022/01/30 00:35:27;;;;;;;12.13;3.23;;;16.10;63.10;;;;;;4997061;28;20437;-83
2022/01/30 00:37:55;;;;;;;13.83;3.23;;;16.10;63.20;;;;;;5017091;28;20500;-83
2022/01/30 00:40:34;;;;;;;12.97;3.50;;;16.10;63.20;;;;;;5020310;28;20425;-84
2022/01/30 00:45:55;;;;;;;15.77;3.70;;;16.10;63.00;;;;;;4976446;28;20441;-84
2022/01/30 00:48:31;;;;;;;12.80;3.07;;;16.10;63.10;;;;;;4977591;28;20442;-83
2022/01/30 00:51:07;;;;;;;20.17;3.40;;;16.10;63.30;;;;;;4978181;28;20474;-84
2022/01/30 00:53:38;;;;;;;18.30;4.60;;;16.10;63.30;;;;;;4982962;28;20452;-83
2022/01/30 00:56:07;;;;;;;8.43;2.57;;;16.10;63.10;;;;;;4997530;28;20464;-83
2022/01/30 00:58:36;;;;;;;15.00;3.80;;;16.10;63.30;;;;;;5009158;28;20522;-83
2022/01/30 01:01:13;;;;;;;14.03;3.40;;;16.00;63.10;;;;;;5016687;28;20436;-83
2022/01/30 01:03:41;;;;;;;12.10;3.43;;;16.10;62.90;;;;;;5017257;28;20603;-83
2022/01/30 01:06:09;;;;;;;10.13;3.27;;;16.10;63.00;;;;;;5016461;28;20923;-83
2022/01/30 01:08:48;;;;;;;11.67;3.10;;;16.10;62.90;;;;;;5017271;28;20527;-84
2022/01/30 01:11:41;;;;;;;15.07;3.43;;;16.00;62.80;;;;;;5016826;28;20440;-84
2022/01/30 01:20:54;;;;;;;11.33;3.40;;;16.00;62.90;;;;;;5003074;28;20477;-84
2022/01/30 01:25:28;;;;;;;14.00;3.90;;;16.00;62.60;;;;;;4989571;28;20461;-84
2022/01/30 01:28:05;;;;;;;11.47;3.00;;;16.00;63.00;;;;;;4997540;28;20442;-84
2022/01/30 01:30:35;;;;;;;14.37;3.87;;;16.00;62.60;;;;;;4995728;28;20463;-84
2022/01/30 01:36:20;;;;;;;11.63;3.27;;;16.00;62.60;;;;;;4974944;28;20454;-87
2022/01/30 01:39:13;;;;;;;15.70;3.70;;;16.00;62.60;;;;;;4974725;28;20461;-87
2022/01/30 01:42:01;;;;;;;14.87;3.60;;;16.00;63.40;;;;;;4974690;28;20414;-87
2022/01/30 01:44:34;;;;;;;12.90;3.07;;;16.00;62.60;;;;;;4964142;28;20530;-87
2022/01/30 01:47:04;;;;;;;12.37;3.53;;;16.00;62.90;;;;;;4959212;29;20415;-85
2022/01/30 01:49:34;;;;;;;13.77;3.30;;;16.00;62.50;;;;;;4958392;29;20431;-86
2022/01/30 01:52:23;;;;;;;12.07;3.47;;;16.00;62.50;;;;;;4958449;29;20416;-86
2022/01/30 01:54:53;;;;;;;16.03;3.43;;;16.00;62.50;;;;;;4959077;29;20461;-86
2022/01/30 01:57:43;;;;;;;9.63;3.03;;;15.90;62.40;;;;;;4959062;29;20443;-85
2022/01/30 02:00:45;;;;;;;13.03;3.70;;;15.90;62.40;;;;;;4964505;28;20487;-86
2022/01/30 02:03:27;;;;;;;12.13;3.33;;;15.90;62.40;;;;;;4958528;28;20446;-87
2022/01/30 02:06:27;;;;;;;13.77;3.30;;;15.90;62.60;;;;;;4957670;29;20458;-87
2022/01/30 02:08:58;;;;;;;10.83;3.23;;;15.90;62.60;;;;;;4957827;29;20494;-87
2022/01/30 02:11:35;;;;;;;10.93;3.67;;;15.90;62.60;;;;;;4958483;29;20474;-87
2022/01/30 02:14:36;;;;;;;9.97;3.27;;;15.90;62.60;;;;;;4958705;29;20446;-85
2022/01/30 02:25:59;;;;;;;12.20;3.23;;;15.90;62.50;;;;;;4997241;28;20431;-85
2022/01/30 02:28:32;;;;;;;16.50;3.97;;;15.90;62.40;;;;;;4997197;28;20536;-86
2022/01/30 02:33:59;;;;;;;14.23;3.10;;;15.90;62.50;;;;;;4993385;28;20492;-86
2022/01/30 02:36:27;;;;;;;10.20;3.77;;;15.90;62.20;;;;;;4996212;28;20445;-86
2022/01/30 02:39:27;;;;;;;12.20;3.30;;;15.90;62.30;;;;;;4996936;28;20512;-87
2022/01/30 02:42:24;;;;;;;18.73;3.70;;;15.90;62.40;;;;;;4996391;28;20563;-87
2022/01/30 02:44:57;;;;;;;13.83;3.23;;;15.90;62.40;;;;;;5009865;28;20499;-87
2022/01/30 02:47:39;;;;;;;14.43;3.50;;;15.90;62.10;;;;;;5016275;28;20487;-87
2022/01/30 02:50:16;;;;;;;13.60;3.67;;;15.90;62.00;;;;;;5014171;28;20417;-86
2022/01/30 02:52:54;;;;;;;10.53;3.60;;;15.90;62.10;;;;;;4996490;28;20442;-86
2022/01/30 02:55:24;;;;;;;16.83;3.77;;;15.90;62.10;;;;;;4996072;28;20469;-86
2022/01/30 02:57:52;;;;;;;10.70;3.57;;;15.90;62.00;;;;;;4994727;28;20461;-86
2022/01/30 03:00:20;;;;;;;12.70;3.63;;;15.90;62.20;;;;;;4996051;28;20500;-86
2022/01/30 03:02:48;;;;;;;14.53;3.53;;;15.90;62.10;;;;;;4996230;28;20434;-87
2022/01/30 03:05:16;;;;;;;14.80;3.60;;;15.90;62.00;;;;;;4995996;28;20453;-86
2022/01/30 03:07:44;;;;;;;12.27;3.30;;;15.90;62.00;;;;;;4995881;28;20426;-86
2022/01/30 03:10:12;;;;;;;19.67;3.87;;;15.90;62.10;;;;;;4995884;28;20445;-86
2022/01/30 03:12:41;;;;;;;11.63;3.40;;;15.90;62.10;;;;;;4994425;28;20450;-86
2022/01/30 03:15:10;;;;;;;17.17;3.90;;;15.90;62.20;;;;;;4995344;28;20492;-86
2022/01/30 03:17:40;;;;;;;16.30;3.87;;;15.90;62.10;;;;;;4995656;28;20434;-86
2022/01/30 03:20:09;;;;;;;17.80;3.93;;;15.90;62.20;;;;;;4996958;28;20457;-86
2022/01/30 03:22:38;;;;;;;18.77;4.53;;;15.90;62.10;;;;;;4989992;28;20441;-85
2022/01/30 03:25:06;;;;;;;16.60;3.80;;;15.90;62.00;;;;;;5006089;28;20448;-86
2022/01/30 03:27:34;;;;;;;13.20;3.20;;;15.90;61.90;;;;;;5015031;28;20444;-86
2022/01/30 03:30:07;;;;;;;16.47;4.03;;;15.80;61.90;;;;;;5014896;28;20416;-86
2022/01/30 03:32:35;;;;;;;12.63;3.57;;;15.80;62.00;;;;;;4992920;28;20485;-87
2022/01/30 03:35:03;;;;;;;16.10;4.63;;;15.80;61.90;;;;;;4994989;28;20480;-87
2022/01/30 03:37:31;;;;;;;19.03;4.17;;;15.80;61.80;;;;;;4995781;28;20499;-87
2022/01/30 03:39:59;;;;;;;14.13;3.80;;;15.80;61.90;;;;;;4994957;28;20469;-86
2022/01/30 03:42:28;;;;;;;17.77;4.17;;;15.80;61.80;;;;;;4995389;28;20500;-86
2022/01/30 03:44:56;;;;;;;15.93;4.03;;;15.80;61.70;;;;;;4995000;28;20465;-87
2022/01/30 03:47:26;;;;;;;18.23;4.43;;;15.80;61.70;;;;;;4995471;28;20445;-86
2022/01/30 03:49:54;;;;;;;14.20;3.97;;;15.80;61.70;;;;;;4995290;28;20414;-86
2022/01/30 03:52:23;;;;;;;17.20;4.40;;;15.70;61.70;;;;;;4995460;28;20449;-87
2022/01/30 03:54:51;;;;;;;13.83;3.87;;;15.80;61.70;;;;;;4992104;28;20461;-87
2022/01/30 03:57:22;;;;;;;15.93;3.63;;;15.70;61.70;;;;;;4997242;28;20477;-86
2022/01/30 03:59:50;;;;;;;22.87;4.77;;;15.80;61.80;;;;;;4996465;28;20556;-87
2022/01/30 04:02:19;;;;;;;14.43;4.27;;;15.80;61.90;;;;;;4995594;28;20446;-87
2022/01/30 04:04:49;;;;;;;12.90;3.73;;;15.80;61.70;;;;;;4995458;28;20508;-84
2022/01/30 04:07:20;;;;;;;14.53;4.17;;;15.80;61.70;;;;;;4996165;28;20456;-86
2022/01/30 04:09:49;;;;;;;15.03;4.17;;;15.80;61.70;;;;;;4996122;28;20437;-85
2022/01/30 04:12:17;;;;;;;16.03;4.40;;;15.80;61.70;;;;;;4996456;28;20454;-85
2022/01/30 04:14:46;;;;;;;15.03;4.20;;;15.80;61.40;;;;;;4995286;28;20453;-86
2022/01/30 04:17:14;;;;;;;16.60;4.10;;;15.80;62.10;;;;;;4995067;28;20524;-86
2022/01/30 04:19:43;;;;;;;25.37;5.20;;;15.80;61.40;;;;;;4994837;28;20469;-86
2022/01/30 04:22:13;;;;;;;16.43;4.10;;;15.80;61.30;;;;;;4998754;28;20457;-86
2022/01/30 04:24:44;;;;;;;15.80;3.70;;;15.80;61.90;;;;;;4998193;28;20492;-86
2022/01/30 04:27:12;;;;;;;18.17;4.70;;;15.80;61.00;;;;;;4997039;28;20441;-86
2022/01/30 04:29:40;;;;;;;19.57;4.50;;;15.80;61.00;;;;;;4996065;28;20476;-87
2022/01/30 04:32:12;;;;;;;21.83;4.07;;;15.70;61.10;;;;;;4994520;28;20540;-87
2022/01/30 04:34:42;;;;;;;19.23;4.23;;;15.70;61.00;;;;;;4994519;28;20465;-87
2022/01/30 04:37:20;;;;;;;17.70;4.30;;;15.70;60.60;;;;;;4994097;28;20991;-87
2022/01/30 04:40:14;;;;;;;15.87;4.20;;;15.70;60.90;;;;;;4993997;28;20515;-87
2022/01/30 04:54:32;;;;;;;15.63;3.63;;;15.60;60.80;;;;;;4968848;28;20469;-85
2022/01/30 04:56:58;;;;;;;16.60;3.90;;;15.70;60.80;;;;;;4993111;28;20461;-86
2022/01/30 04:59:46;;;;;;;14.27;3.57;;;15.70;60.90;;;;;;4994085;28;20437;-86
2022/01/30 05:02:33;;;;;;;16.33;4.57;;;15.70;60.90;;;;;;4993385;28;20467;-85
2022/01/30 05:05:23;;;;;;;15.63;3.90;;;15.70;60.90;;;;;;4994399;28;20446;-85
2022/01/30 05:07:54;;;;;;;19.60;4.20;;;15.70;60.90;;;;;;4977215;28;20454;-85
2022/01/30 05:10:23;;;;;;;16.80;4.03;;;15.70;60.90;;;;;;4976886;28;20446;-86
2022/01/30 05:12:56;;;;;;;19.00;4.47;;;15.70;60.80;;;;;;4976539;28;20474;-85
2022/01/30 05:15:26;;;;;;;21.00;3.83;;;15.70;60.70;;;;;;4975172;28;20482;-85
2022/01/30 05:17:55;;;;;;;15.17;4.33;;;15.70;60.80;;;;;;4975429;28;20473;-85
2022/01/30 05:20:23;;;;;;;15.80;4.20;;;15.70;60.50;;;;;;4976755;28;20473;-85
2022/01/30 05:22:52;;;;;;;20.20;4.07;;;15.70;60.40;;;;;;4979861;28;20508;-85
2022/01/30 05:25:21;;;;;;;20.53;4.93;;;15.70;60.50;;;;;;4978913;28;20525;-86
2022/01/30 05:27:50;;;;;;;17.50;4.50;;;15.70;60.70;;;;;;4978285;28;20442;-86
2022/01/30 05:30:19;;;;;;;16.90;3.57;;;15.70;60.40;;;;;;4978759;28;20458;-85
2022/01/30 05:32:47;;;;;;;19.17;4.03;;;15.70;60.30;;;;;;4994685;28;20457;-86
2022/01/30 05:35:16;;;;;;;16.97;4.43;;;15.70;60.30;;;;;;4998007;28;20500;-85
2022/01/30 05:37:44;;;;;;;21.57;5.10;;;15.70;60.20;;;;;;4997659;28;20445;-86
2022/01/30 05:40:13;;;;;;;16.80;4.43;;;15.70;60.30;;;;;;4998023;28;20484;-86
2022/01/30 05:42:42;;;;;;;19.80;4.70;;;15.70;60.50;;;;;;4997657;28;20508;-86
2022/01/30 05:45:17;;;;;;;17.30;4.60;;;15.70;60.30;;;;;;4997428;28;20504;-86
2022/01/30 05:47:50;;;;;;;13.00;3.73;;;15.70;60.20;;;;;;4997446;28;20456;-86
2022/01/30 05:50:18;;;;;;;15.93;4.23;;;15.70;60.30;;;;;;4997439;28;20521;-86
2022/01/30 05:52:46;;;;;;;16.47;4.10;;;15.70;60.20;;;;;;4997465;28;20472;-86
2022/01/30 05:55:14;;;;;;;13.53;4.30;;;15.70;60.30;;;;;;4997597;28;20532;-86
2022/01/30 05:57:43;;;;;;;12.70;4.23;;;15.70;60.30;;;;;;4997226;28;20472;-86
2022/01/30 06:00:15;;;;;;;14.93;4.03;;;15.70;60.10;;;;;;4997195;28;20453;-86
2022/01/30 06:02:43;;;;;;;20.97;4.60;;;15.70;60.10;;;;;;5006094;28;20453;-86
2022/01/30 06:05:13;;;;;;;11.80;3.30;;;15.70;60.00;;;;;;4998514;28;20453;-87
2022/01/30 06:07:47;;;;;;;21.97;4.67;;;15.70;59.90;;;;;;4998030;28;20468;-87
2022/01/30 06:10:15;;;;;;;24.27;4.80;;;15.70;59.90;;;;;;4996933;28;20875;-86
2022/01/30 06:12:43;;;;;;;20.00;4.30;;;15.70;59.90;;;;;;4996867;28;20444;-87
2022/01/30 06:15:13;;;;;;;13.30;4.20;;;15.70;59.90;;;;;;4997270;28;20500;-86
2022/01/30 06:17:42;;;;;;;15.83;4.10;;;15.70;59.80;;;;;;4997080;28;20449;-87
2022/01/30 06:20:11;;;;;;;16.00;4.40;;;15.70;59.80;;;;;;4996851;28;20437;-86
2022/01/30 06:22:39;;;;;;;17.70;4.70;;;15.70;59.80;;;;;;4997171;28;20461;-86
2022/01/30 06:25:13;;;;;;;17.03;4.00;;;15.70;59.80;;;;;;4996757;28;20460;-86
2022/01/30 06:27:41;;;;;;;25.77;5.00;;;15.60;59.80;;;;;;4997108;28;20453;-86
2022/01/30 06:30:21;;;;;;;19.67;4.73;;;15.60;59.80;;;;;;4998169;28;20476;-86
2022/01/30 06:32:50;;;;;;;22.30;4.20;;;15.60;60.00;;;;;;4997434;28;20499;-86
2022/01/30 06:35:21;;;;;;;15.97;3.97;;;15.50;59.80;;;;;;4996859;28;20851;-86
2022/01/30 06:37:49;;;;;;;17.03;4.57;;;15.60;59.80;;;;;;4996438;28;20481;-86
2022/01/30 06:40:17;;;;;;;16.60;4.13;;;15.60;60.30;;;;;;4996920;28;20499;-87
2022/01/30 06:42:51;;;;;;;17.27;4.00;;;15.60;59.70;;;;;;4996448;28;20516;-87
2022/01/30 06:45:23;;;;;;;15.50;3.80;;;15.50;59.60;;;;;;4996712;28;20476;-87
2022/01/30 06:47:52;;;;;;;15.53;3.77;;;15.50;59.60;;;;;;4996959;28;20441;-85
2022/01/30 06:50:23;;;;;;;21.53;4.93;;;15.50;59.50;;;;;;4996717;28;20489;-85
2022/01/30 06:52:51;;;;;;;21.10;4.30;;;15.50;59.40;;;;;;4996762;28;20477;-85
2022/01/30 06:55:25;;;;;;;14.13;3.60;;;15.50;59.60;;;;;;4996451;28;20465;-85
2022/01/30 06:58:03;;;;;;;18.70;3.80;;;15.50;59.60;;;;;;4996463;28;20477;-86
2022/01/30 07:00:36;;;;;;;11.67;3.63;;;15.50;59.60;;;;;;4996359;28;20452;-87
2022/01/30 07:03:09;;;;;;;21.00;4.03;;;15.50;59.50;;;;;;4996184;28;20544;-87
2022/01/30 07:05:37;;;;;;;16.03;4.37;;;15.40;59.40;;;;;;4996078;28;20449;-87
2022/01/30 07:08:10;;;;;;;11.17;3.97;;;15.40;59.40;;;;;;4999798;28;20945;-86
2022/01/30 07:10:41;;;;;;;15.13;4.13;;;15.40;59.40;;;;;;4997280;28;20513;-85
2022/01/30 07:13:12;;;;;;;18.03;4.07;;;15.40;59.40;;;;;;4996132;28;20488;-86
2022/01/30 07:15:54;;;;;;;14.50;3.70;;;15.40;59.60;;;;;;4996452;28;20450;-86
2022/01/30 07:18:26;;;;;;;17.03;4.10;;;15.40;59.50;;;;;;4996437;28;20448;-86
2022/01/30 07:20:55;;;;;;;17.83;3.90;;;15.40;59.50;;;;;;4996055;28;20445;-86
2022/01/30 07:23:23;;;;;;;13.07;4.27;;;15.40;59.40;;;;;;4995817;28;20473;-86
2022/01/30 07:25:59;;;;;;;15.43;3.87;;;15.50;59.40;;;;;;4995460;28;20449;-87
2022/01/30 07:28:27;;;;;;;16.97;5.43;;;15.50;59.30;;;;;;4995395;28;20421;-86
2022/01/30 07:30:57;;;;;;;11.80;3.40;;;15.50;59.50;;;;;;4990952;28;20495;-86
2022/01/30 07:33:25;;;;;;;11.33;3.63;;;15.50;59.20;;;;;;4988240;28;20457;-86
2022/01/30 07:35:55;;;;;;;22.63;4.47;;;15.50;59.20;;;;;;4994851;28;20429;-87
2022/01/30 07:38:23;;;;;;;16.03;4.07;;;15.50;59.20;;;;;;4995317;28;20857;-85
2022/01/30 07:40:51;;;;;;;9.13;3.20;;;15.50;59.10;;;;;;4994959;28;20472;-86
2022/01/30 07:43:19;;;;;;;12.80;3.80;;;15.50;59.20;;;;;;4994116;28;20504;-85
2022/01/30 07:45:57;;;;;;;11.23;3.63;;;15.50;59.20;;;;;;4996141;28;20449;-85
2022/01/30 07:48:25;;;;;;;16.37;3.73;;;15.50;59.10;;;;;;4985844;28;20438;-87
2022/01/30 07:50:53;;;;;;;13.73;3.80;;;15.50;59.10;;;;;;4983717;28;20481;-85
2022/01/30 07:53:21;;;;;;;16.97;3.90;;;15.50;59.10;;;;;;4986216;28;20485;-86
2022/01/30 07:56:03;;;;;;;15.33;3.40;;;15.50;59.20;;;;;;4985995;28;20497;-86
2022/01/30 07:58:31;;;;;;;14.30;3.83;;;15.60;59.10;;;;;;4983602;28;20450;-86
2022/01/30 08:01:01;;;;;;;17.07;3.87;;;15.50;59.00;;;;;;4985690;28;20464;-86
2022/01/30 08:03:32;;;;;;;10.00;3.20;;;15.60;58.90;;;;;;4985049;28;20477;-86
2022/01/30 08:06:00;;;;;;;16.63;4.00;;;15.50;58.80;;;;;;4984509;28;20456;-86
2022/01/30 08:08:29;;;;;;;17.33;3.90;;;15.60;58.80;;;;;;4985326;28;20435;-84
2022/01/30 08:10:56;;;;;;;10.30;3.53;;;15.60;58.90;;;;;;4985478;28;20941;-85
2022/01/30 08:13:25;;;;;;;14.83;4.40;;;15.60;58.80;;;;;;4994189;28;20507;-85
2022/01/30 08:15:53;;;;;;;10.00;3.40;;;15.60;59.00;;;;;;4997887;28;20453;-85
2022/01/30 08:18:22;;;;;;;12.90;4.03;;;15.70;59.00;;;;;;4997242;28;20540;-84
2022/01/30 08:20:50;;;;;;;17.27;3.87;;;15.70;58.90;;;;;;4995061;28;20499;-85
2022/01/30 08:23:19;;;;;;;15.53;3.40;;;15.80;58.60;;;;;;4995236;28;20500;-85
2022/01/30 08:25:46;;;;;;;17.50;3.70;;;15.80;58.50;;;;;;4995269;28;21023;-85
2022/01/30 08:28:15;;;;;;;14.43;3.70;;;15.80;58.50;;;;;;4995266;28;20448;-84
2022/01/30 08:30:43;;;;;;;19.20;4.60;;;15.90;58.50;;;;;;4995538;28;20468;-84
2022/01/30 08:33:11;;;;;;;13.23;4.10;;;15.90;58.40;;;;;;4995152;28;20453;-84
2022/01/30 08:35:40;;;;;;;19.47;4.20;;;15.90;58.40;;;;;;4998166;28;20476;-85
2022/01/30 08:38:10;;;;;;;15.83;4.33;;;16.00;58.40;;;;;;4999848;28;20429;-85
2022/01/30 08:44:00;;;;;;;15.53;4.00;;;16.10;58.20;;;;;;5000202;28;20504;-84
2022/01/30 08:46:29;;;;;;;17.90;4.20;;;16.20;58.30;;;;;;4996724;28;20445;-86
2022/01/30 08:48:59;;;;;;;13.63;3.93;;;16.30;58.20;;;;;;4997120;28;20445;-86
2022/01/30 08:51:28;;;;;;;12.60;3.73;;;16.40;57.80;;;;;;4996902;28;20433;-86
2022/01/30 08:53:56;;;;;;;14.87;3.90;;;16.40;57.70;;;;;;4996698;28;20957;-85
2022/01/30 08:56:25;;;;;;;12.60;3.87;;;16.40;57.50;;;;;;4995069;28;20433;-86
2022/01/30 08:58:53;;;;;;;16.53;4.00;;;16.40;57.60;;;;;;4989115;28;20450;-85
2022/01/30 09:01:33;;;;;;;13.17;3.50;;;16.40;57.40;;;;;;4994487;28;20449;-85
2022/01/30 09:04:03;;;;;;;15.47;3.70;;;16.40;57.50;;;;;;4994775;28;20527;-84
2022/01/30 09:06:32;;;;;;;17.00;4.30;;;16.50;57.60;;;;;;4994714;28;20439;-84
2022/01/30 09:09:03;;;;;;;15.13;4.33;;;16.60;57.70;;;;;;4994812;28;20441;-85
2022/01/30 09:11:31;;;;;;;17.07;4.60;;;16.70;58.20;;;;;;4995269;28;20464;-86
2022/01/30 09:13:59;;;;;;;19.00;4.10;;;16.90;57.30;;;;;;4994636;28;20512;-85
2022/01/30 09:16:31;;;;;;;18.50;4.77;;;17.00;57.20;;;;;;4994814;28;20456;-85
2022/01/30 09:19:04;;;;;;;12.20;3.90;;;17.10;56.80;;;;;;4994861;28;20413;-85
2022/01/30 09:21:33;;;;;;;18.53;4.83;;;17.10;57.40;;;;;;4994939;28;20406;-85
2022/01/30 09:24:12;;;;;;;18.47;4.40;;;17.00;56.90;;;;;;4994519;28;20484;-86
2022/01/30 09:26:46;;;;;;;17.73;4.73;;;17.00;56.70;;;;;;4994690;28;20418;-87
2022/01/30 09:29:22;;;;;;;15.37;4.60;;;17.00;56.90;;;;;;4994621;28;20448;-86
2022/01/30 09:32:14;;;;;;;12.90;4.50;;;17.00;56.80;;;;;;4995077;28;20528;-85
2022/01/30 09:34:48;;;;;;;20.70;4.83;;;16.90;57.50;;;;;;4995657;28;20504;-83
2022/01/30 09:37:23;;;;;;;16.30;4.23;;;17.00;56.90;;;;;;4995323;28;20488;-84
2022/01/30 09:39:52;;;;;;;16.00;4.80;;;17.00;57.00;;;;;;4995818;28;20451;-84
2022/01/30 09:42:20;;;;;;;13.17;4.50;;;17.00;56.90;;;;;;4996300;28;20436;-83
2022/01/30 09:44:48;;;;;;;13.43;3.80;;;17.00;57.00;;;;;;4995905;28;20533;-83
2022/01/30 09:47:18;;;;;;;19.50;5.17;;;17.00;56.80;;;;;;4997173;28;20449;-84
2022/01/30 09:49:48;;;;;;;20.63;5.83;;;17.10;57.10;;;;;;4995650;28;20445;-84
2022/01/30 09:52:17;;;;;;;14.23;4.27;;;17.10;56.80;;;;;;4995237;28;20453;-83
2022/01/30 09:54:54;;;;;;;18.30;4.60;;;17.10;56.80;;;;;;4979676;28;20465;-85
2022/01/30 09:57:22;;;;;;;17.97;4.43;;;17.20;56.70;;;;;;4994381;28;20454;-84
2022/01/30 09:59:50;;;;;;;16.10;4.63;;;17.30;56.90;;;;;;4994494;28;20450;-83
2022/01/30 10:02:18;;;;;;;15.97;4.40;;;17.30;56.60;;;;;;4993732;28;20452;-84
2022/01/30 10:04:46;;;;;;;20.23;5.23;;;17.30;56.40;;;;;;5000569;28;20825;-85
2022/01/30 10:07:17;;;;;;;22.97;4.13;;;17.20;56.50;;;;;;4998725;28;20453;-85
2022/01/30 10:09:46;;;;;;;21.40;4.70;;;17.20;56.50;;;;;;5000468;28;20426;-85
2022/01/30 10:12:19;;;;;;;26.83;5.17;;;17.10;56.50;;;;;;5001243;28;20799;-85
2022/01/30 10:14:51;;;;;;;16.73;4.93;;;17.10;56.70;;;;;;5000155;28;20990;-85
2022/01/30 10:17:32;;;;;;;23.93;5.13;;;17.20;57.00;;;;;;5000546;28;20441;-85
2022/01/30 10:20:20;;;;;;;24.37;5.10;;;17.30;56.90;;;;;;5000008;28;20437;-85
2022/01/30 10:22:49;;;;;;;16.67;5.10;;;17.30;56.60;;;;;;5000162;28;20437;-85
2022/01/30 10:25:21;;;;;;;21.63;5.20;;;17.30;56.60;;;;;;4999924;28;20511;-86
2022/01/30 10:28:04;;;;;;;23.57;5.27;;;17.40;56.50;;;;;;4996611;28;20460;-85
2022/01/30 10:30:39;;;;;;;25.53;5.00;;;17.40;56.60;;;;;;4997952;28;20418;-85
2022/01/30 10:33:09;;;;;;;19.03;5.70;;;17.40;56.40;;;;;;4998240;28;20457;-86
2022/01/30 10:35:48;;;;;;;19.90;5.30;;;17.40;56.60;;;;;;4998098;28;20433;-85
2022/01/30 10:38:20;;;;;;;28.97;5.73;;;17.30;56.40;;;;;;4997867;28;20532;-85
2022/01/30 10:40:58;;;;;;;17.80;4.80;;;17.40;56.30;;;;;;4998499;28;20929;-85
2022/01/30 10:43:49;;;;;;;18.67;5.07;;;17.40;56.40;;;;;;4998892;28;20572;-85
2022/01/30 10:46:29;;;;;;;23.23;5.60;;;17.40;56.60;;;;;;4998443;28;20438;-86
2022/01/30 10:48:58;;;;;;;20.17;5.00;;;17.40;56.50;;;;;;4997496;28;20460;-86
2022/01/30 10:51:27;;;;;;;14.80;4.77;;;17.40;56.60;;;;;;4998122;28;20461;-85
2022/01/30 10:53:56;;;;;;;15.73;4.20;;;17.30;56.60;;;;;;4997770;28;20454;-85
2022/01/30 10:56:26;;;;;;;22.97;4.90;;;17.40;57.00;;;;;;4997131;28;20437;-85
2022/01/30 10:59:17;;;;;;;16.43;5.23;;;17.40;57.00;;;;;;4998585;28;20417;-86
2022/01/30 11:01:46;;;;;;;24.40;4.90;;;17.50;56.90;;;;;;4988945;28;20469;-85
2022/01/30 11:04:24;;;;;;;19.83;5.17;;;17.50;57.00;;;;;;4997058;28;20477;-86
2022/01/30 11:06:54;;;;;;;20.67;5.23;;;17.50;56.80;;;;;;4996376;28;20505;-86
2022/01/30 11:09:25;;;;;;;25.17;5.13;;;17.60;57.00;;;;;;4996039;28;20520;-86
2022/01/30 11:11:57;;;;;;;17.70;5.17;;;17.60;56.70;;;;;;4998322;28;20410;-85
2022/01/30 11:14:35;;;;;;;22.63;5.70;;;17.60;56.50;;;;;;4999490;28;20461;-85
2022/01/30 11:17:05;;;;;;;19.60;5.30;;;17.60;56.50;;;;;;4998483;28;20472;-85
2022/01/30 11:19:35;;;;;;;14.70;4.53;;;17.60;56.60;;;;;;4998045;28;20469;-84
2022/01/30 11:22:06;;;;;;;15.43;4.70;;;17.60;56.50;;;;;;4998499;28;20428;-85
2022/01/30 11:24:44;;;;;;;18.70;4.97;;;17.60;56.60;;;;;;4998714;28;20571;-84
2022/01/30 11:27:12;;;;;;;18.20;5.07;;;17.60;56.60;;;;;;4992146;28;20457;-84
2022/01/30 11:29:41;;;;;;;20.40;5.40;;;17.60;56.80;;;;;;4978194;28;20529;-84
2022/01/30 11:32:10;;;;;;;19.40;4.13;;;17.60;56.80;;;;;;4977211;28;20446;-84
2022/01/30 11:34:39;;;;;;;17.07;5.07;;;17.60;56.80;;;;;;4976627;28;20514;-85
2022/01/30 11:37:08;;;;;;;22.90;5.30;;;17.90;57.30;;;;;;4976095;28;20434;-85
2022/01/30 11:39:37;;;;;;;15.87;5.30;;;18.20;57.40;;;;;;4976351;28;20449;-84
2022/01/30 11:42:18;;;;;;;19.60;4.80;;;18.50;57.00;;;;;;4976107;28;20466;-84
2022/01/30 11:44:47;;;;;;;18.50;4.70;;;18.80;56.60;;;;;;4992504;28;20520;-85
2022/01/30 11:47:43;;;;;;;23.57;5.00;;;19.20;56.80;;;;;;4996400;28;20476;-84
2022/01/30 11:50:11;;;;;;;19.97;5.27;;;19.50;56.00;;;;;;4997745;28;21008;-87
2022/01/30 11:52:50;;;;;;;16.40;4.80;;;19.90;56.00;;;;;;4986394;28;20472;-85
2022/01/30 11:55:49;;;;;;;15.40;4.40;;;20.20;55.10;;;;;;5001067;28;20445;-83
2022/01/30 11:58:42;;;;;;;11.40;4.30;;;20.30;54.70;;;;;;5002634;28;20489;-85
2022/01/30 12:01:36;;;;;;;18.57;4.80;;;20.40;54.80;;;;;;4994271;28;20450;-84
2022/01/30 12:04:12;;;;;;;21.13;5.43;;;20.30;54.10;;;;;;4996301;28;20520;-85
2022/01/30 12:06:43;;;;;;;19.40;4.13;;;20.50;54.90;;;;;;4999384;28;20428;-84
2022/01/30 12:09:32;;;;;;;14.60;4.30;;;20.70;54.40;;;;;;4999369;28;20445;-84
2022/01/30 12:12:05;;;;;;;17.87;5.43;;;20.80;54.10;;;;;;4993253;28;20468;-84
2022/01/30 12:14:57;;;;;;;17.03;5.37;;;21.00;54.20;;;;;;4999928;28;20520;-84
2022/01/30 12:18:00;;;;;;;19.37;5.17;;;20.90;53.40;;;;;;5007390;28;20456;-84
2022/01/30 12:20:30;;;;;;;14.70;4.70;;;21.00;53.40;;;;;;4992028;28;20469;-83
2022/01/30 12:23:01;;;;;;;16.80;5.30;;;20.90;53.30;;;;;;4993303;28;20488;-83
2022/01/30 12:25:35;;;;;;;16.33;5.10;;;20.80;53.20;;;;;;4991722;28;20469;-84
2022/01/30 12:28:08;;;;;;;18.70;4.53;;;20.80;53.90;;;;;;4999104;28;20406;-83
2022/01/30 12:30:44;;;;;;;16.70;4.33;;;20.90;53.40;;;;;;4999020;28;20418;-83
2022/01/30 12:33:39;;;;;;;12.20;3.83;;;21.10;53.20;;;;;;4989739;28;20465;-85
2022/01/30 12:36:18;;;;;;;19.43;4.50;;;20.80;54.00;;;;;;4979866;28;20431;-82
2022/01/30 12:38:46;;;;;;;23.90;4.90;;;20.90;54.50;;;;;;4977546;28;20450;-82
2022/01/30 12:41:16;;;;;;;14.30;4.47;;;21.00;54.70;;;;;;4976868;28;20501;-82
2022/01/30 12:43:44;;;;;;;19.63;4.30;;;21.00;54.50;;;;;;4976854;28;20481;-82
2022/01/30 12:46:15;;;;;;;22.83;5.00;;;21.20;54.30;;;;;;4977696;28;20438;-81
2022/01/30 12:49:04;;;;;;;10.40;3.80;;;21.40;54.60;;;;;;4983827;28;20449;-83
2022/01/30 12:51:32;;;;;;;15.00;4.77;;;21.80;54.20;;;;;;4996045;28;20958;-83
2022/01/30 12:54:01;;;;;;;10.50;3.60;;;22.10;53.70;;;;;;4995942;28;20553;-82
2022/01/30 12:56:29;;;;;;;18.10;5.73;;;22.10;53.20;;;;;;4995835;28;20477;-82
2022/01/30 12:58:59;;;;;;;18.43;4.47;;;22.00;52.80;;;;;;4996376;28;20426;-83
2022/01/30 13:01:36;;;;;;;17.20;5.50;;;21.90;53.00;;;;;;4996729;28;20468;-81
2022/01/30 13:04:08;;;;;;;14.60;4.47;;;21.90;52.80;;;;;;4995734;28;20445;-82
2022/01/30 13:06:37;;;;;;;15.93;4.50;;;21.70;52.50;;;;;;4996124;28;21023;-83
2022/01/30 13:09:06;;;;;;;19.07;4.80;;;21.40;52.60;;;;;;4997551;28;20457;-85
2022/01/30 13:11:34;;;;;;;15.20;4.20;;;21.20;52.80;;;;;;4997183;28;20441;-84
2022/01/30 13:14:05;;;;;;;17.10;5.10;;;21.00;53.00;;;;;;4997925;28;20500;-84
2022/01/30 13:16:39;;;;;;;23.00;4.80;;;20.80;53.40;;;;;;5002661;28;20441;-83
2022/01/30 13:19:10;;;;;;;14.10;4.50;;;20.60;53.80;;;;;;5007917;28;20425;-84
2022/01/30 13:21:39;;;;;;;19.60;5.20;;;20.50;54.20;;;;;;5004836;28;20425;-84
2022/01/30 13:24:07;;;;;;;11.93;3.80;;;20.50;54.30;;;;;;5001233;28;20458;-84
2022/01/30 13:26:37;;;;;;;23.43;5.20;;;20.50;54.30;;;;;;4997816;28;20496;-82
2022/01/30 13:29:11;;;;;;;22.50;5.70;;;20.40;54.50;;;;;;4997863;28;20541;-81
2022/01/30 13:31:45;;;;;;;21.40;4.73;;;20.50;54.50;;;;;;4996876;28;20540;-82
2022/01/30 13:34:17;;;;;;;21.30;5.53;;;20.60;54.70;;;;;;4997221;28;20504;-80
2022/01/30 13:36:53;;;;;;;16.30;4.53;;;20.70;54.50;;;;;;4997367;28;20422;-80
2022/01/30 13:39:34;;;;;;;16.07;4.67;;;20.80;54.80;;;;;;4996597;28;20508;-81
2022/01/30 13:42:32;;;;;;;13.50;4.43;;;21.00;54.40;;;;;;5005856;28;20524;-85
2022/01/30 13:46:55;;;;;;;13.97;4.70;;;21.10;54.20;;;;;;4999738;28;20515;-84
2022/01/30 13:47:55;;;;;;;12.63;4.07;;;21.30;54.60;;;;;;4991278;28;20442;-84
2022/01/30 13:50:26;;;;;;;31.10;5.50;;;21.20;53.80;;;;;;4983628;28;20446;-82
2022/01/30 13:53:02;;;;;;;25.47;5.20;;;21.60;57.20;;;;;;4990499;28;20439;-84